Time;durP1;ratioP1;P1;durP2;ratioP2;P2;SDS_P1;SDS_P2;PMS_P1;PMS_P2;Temp;Humidity;BMP_temperature;BMP_pressure;BME280_temperature;BME280_humidity;BME280_pressure;Samples;Min_cycle;Max_cycle;Signal;HPM_P1;HPM_P2
2024/03/14 00:01:41;;;;;;;;;;;;;;;12.44;48.15;100728.66;4982188;27;98137;-73
2024/03/14 00:04:07;;;;;;;;;;;;;;;12.43;48.46;100719.72;4983624;27;98239;-75
2024/03/14 00:06:33;;;;;;;;;;;;;;;12.43;48.21;100721.63;4989756;27;98139;-73
2024/03/14 00:09:01;;;;;;;;;;;;;;;12.43;48.35;100722.44;4983476;27;99361;-73
2024/03/14 00:11:32;;;;;;;;;;;;;;;12.43;48.17;100727.03;4970394;27;98110;-73
2024/03/14 00:13:59;;;;;;;;;;;;;;;12.42;48.34;100718.13;4973814;27;97883;-75
2024/03/14 00:16:27;;;;;;;;;;;;;;;12.43;48.37;100718.94;4983828;27;98451;-73
2024/03/14 00:18:54;;;;;;;;;;;;;;;12.42;48.26;100717.31;5002063;27;98933;-75
2024/03/14 00:21:21;;;;;;;;;;;;;;;12.43;48.39;100721.63;4997848;27;101792;-73
2024/03/14 00:23:48;;;;;;;;;;;;;;;12.41;48.34;100719.19;4983058;27;98641;-73
2024/03/14 00:26:15;;;;;;;;;;;;;;;12.42;48.34;100722.72;4984270;27;98115;-72
2024/03/14 00:28:42;;;;;;;;;;;;;;;12.42;48.25;100718.13;4952708;27;99454;-75
2024/03/14 00:31:10;;;;;;;;;;;;;;;12.41;48.29;100716.47;4977346;27;98170;-73
2024/03/14 00:33:37;;;;;;;;;;;;;;;12.41;48.54;100713.78;4963077;27;98075;-73
2024/03/14 00:36:04;;;;;;;;;;;;;;;12.41;48.32;100713.78;4983421;27;98122;-75
2024/03/14 00:38:32;;;;;;;;;;;;;;;12.41;48.49;100713.78;4969549;27;98614;-73
2024/03/14 00:41:01;;;;;;;;;;;;;;;12.42;48.47;100714.63;4961577;27;98449;-72
2024/03/14 00:43:28;;;;;;;;;;;;;;;12.41;48.49;100700.25;4995651;27;98187;-75
2024/03/14 00:45:54;;;;;;;;;;;;;;;12.41;48.17;100705.66;4945967;27;98280;-72
2024/03/14 00:48:21;;;;;;;;;;;;;;;12.41;48.51;100704.84;4956346;27;98056;-73
2024/03/14 00:50:49;;;;;;;;;;;;;;;12.40;48.61;100701.34;4969434;27;98147;-73
2024/03/14 00:53:16;;;;;;;;;;;;;;;12.41;48.23;100696.75;4996278;27;98072;-75
2024/03/14 00:55:43;;;;;;;;;;;;;;;12.41;48.48;100699.44;4965611;27;100141;-73
2024/03/14 00:58:11;;;;;;;;;;;;;;;12.41;48.55;100696.75;4958071;27;99649;-75
2024/03/14 01:00:38;;;;;;;;;;;;;;;12.41;48.32;100694.84;4941890;27;98276;-76
2024/03/14 01:03:04;;;;;;;;;;;;;;;12.39;48.49;100694.34;4958921;27;98208;-72
2024/03/14 01:05:31;;;;;;;;;;;;;;;12.40;48.53;100690.53;4950204;27;99529;-72
2024/03/14 01:07:57;;;;;;;;;;;;;;;12.39;48.41;100691.63;4983475;27;98520;-75
2024/03/14 01:10:24;;;;;;;;;;;;;;;12.39;48.38;100683.53;4944210;28;98394;-73
2024/03/14 01:12:51;;;;;;;;;;;;;;;12.40;48.54;100687.84;4938911;27;98149;-72
2024/03/14 01:15:18;;;;;;;;;;;;;;;12.40;48.50;100681.63;4993073;27;98253;-72
2024/03/14 01:17:44;;;;;;;;;;;;;;;12.40;48.57;100677.03;4980821;27;98106;-72
2024/03/14 01:20:11;;;;;;;;;;;;;;;12.39;48.51;100674.59;4949602;27;98367;-76
2024/03/14 01:22:38;;;;;;;;;;;;;;;12.40;48.55;100676.22;4948776;27;98092;-74
2024/03/14 01:25:07;;;;;;;;;;;;;;;12.39;48.32;100672.72;4955441;27;98180;-72
2024/03/14 01:27:34;;;;;;;;;;;;;;;12.40;48.53;100670.81;4954712;27;98208;-75
2024/03/14 01:30:01;;;;;;;;;;;;;;;12.39;48.44;100667.31;4951013;27;98541;-72
2024/03/14 01:32:27;;;;;;;;;;;;;;;12.39;48.54;100667.31;4967325;27;98269;-72
2024/03/14 01:34:53;;;;;;;;;;;;;;;12.39;48.38;100667.31;4964192;27;98497;-72
2024/03/14 01:37:21;;;;;;;;;;;;;;;12.39;48.43;100664.59;4962032;28;98359;-75
2024/03/14 01:39:49;;;;;;;;;;;;;;;12.40;48.49;100662.69;4981903;27;98000;-75
2024/03/14 01:42:16;;;;;;;;;;;;;;;12.40;48.48;100670.81;4963921;28;97976;-76
2024/03/14 01:45:01;;;;;;;;;;;;;;;12.39;48.52;100661.91;4961788;27;98031;-76
2024/03/14 01:47:27;;;;;;;;;;;;;;;12.40;48.43;100654.59;4945118;27;99334;-75
2024/03/14 01:49:55;;;;;;;;;;;;;;;12.39;48.57;100648.38;4956450;27;98225;-73
2024/03/14 01:52:24;;;;;;;;;;;;;;;12.39;48.35;100652.97;4968253;27;98225;-72
2024/03/14 01:54:53;;;;;;;;;;;;;;;12.39;48.43;100645.69;4949677;27;98750;-75
2024/03/14 01:57:19;;;;;;;;;;;;;;;12.39;48.35;100651.09;4982396;27;99078;-73
2024/03/14 01:59:49;;;;;;;;;;;;;;;12.40;48.42;100654.59;4967546;27;98446;-77
2024/03/14 02:02:20;;;;;;;;;;;;;;;12.40;48.61;100643.78;4978602;27;98311;-75
2024/03/14 02:04:52;;;;;;;;;;;;;;;12.39;48.39;100642.97;4957376;27;99481;-72
2024/03/14 02:07:18;;;;;;;;;;;;;;;12.38;48.36;100637.81;4963890;28;98434;-72
2024/03/14 02:09:44;;;;;;;;;;;;;;;12.40;48.58;100641.06;4947248;27;98195;-72
2024/03/14 02:12:11;;;;;;;;;;;;;;;12.39;48.33;100642.16;4961121;28;98272;-73
2024/03/14 02:14:38;;;;;;;;;;;;;;;12.39;48.51;100645.69;4977656;27;100019;-72
2024/03/14 02:17:04;;;;;;;;;;;;;;;12.39;48.63;100642.97;4949699;27;98158;-75
2024/03/14 02:19:32;;;;;;;;;;;;;;;12.40;48.65;100635.66;4965518;27;98125;-76
2024/03/14 02:22:02;;;;;;;;;;;;;;;12.39;48.42;100634.84;4962356;27;98201;-75
2024/03/14 02:24:29;;;;;;;;;;;;;;;12.39;48.54;100632.16;4999930;27;98583;-72
2024/03/14 02:26:56;;;;;;;;;;;;;;;12.39;48.66;100634.06;4956536;27;98206;-72
2024/03/14 02:29:22;;;;;;;;;;;;;;;12.40;48.70;100635.66;4978512;27;100525;-75
2024/03/14 02:31:52;;;;;;;;;;;;;;;12.40;48.49;100635.66;4976496;27;100005;-75
2024/03/14 02:34:21;;;;;;;;;;;;;;;12.39;48.58;100645.69;4981654;27;98237;-76
2024/03/14 02:36:47;;;;;;;;;;;;;;;12.39;48.60;100640.25;4985998;27;98509;-75
2024/03/14 02:39:14;;;;;;;;;;;;;;;12.39;48.71;100640.25;4967143;27;98534;-73
2024/03/14 02:41:42;;;;;;;;;;;;;;;12.39;48.51;100644.88;5001191;27;99279;-75
2024/03/14 02:44:15;;;;;;;;;;;;;;;12.37;48.48;100645.13;4965607;27;98514;-72
2024/03/14 02:46:42;;;;;;;;;;;;;;;12.37;48.67;100638.91;4960031;27;98931;-72
2024/03/14 02:49:14;;;;;;;;;;;;;;;12.39;48.50;100644.88;4964449;27;98405;-75
2024/03/14 02:51:45;;;;;;;;;;;;;;;12.38;48.62;100638.66;4963275;27;98087;-75
2024/03/14 02:54:15;;;;;;;;;;;;;;;12.39;48.77;100639.47;4966894;27;98269;-75
2024/03/14 02:56:47;;;;;;;;;;;;;;;12.37;48.61;100631.59;4963147;27;98304;-75
2024/03/14 02:59:13;;;;;;;;;;;;;;;12.38;48.41;100635.94;4965281;27;98421;-72
2024/03/14 03:01:40;;;;;;;;;;;;;;;12.38;48.72;100632.41;4965881;27;97976;-75
2024/03/14 03:04:09;;;;;;;;;;;;;;;12.38;48.40;100638.66;4984866;27;98176;-75
2024/03/14 03:06:36;;;;;;;;;;;;;;;12.37;48.50;100634.31;4969933;27;97985;-72
2024/03/14 03:09:05;;;;;;;;;;;;;;;12.38;48.50;100641.34;4971431;27;101542;-72
2024/03/14 03:11:37;;;;;;;;;;;;;;;12.38;48.62;100637.81;4962824;27;98131;-75
2024/03/14 03:14:05;;;;;;;;;;;;;;;12.38;48.60;100635.13;4985021;27;99478;-75
2024/03/14 03:16:33;;;;;;;;;;;;;;;12.38;48.79;100630.53;4980337;27;98092;-72
2024/03/14 03:18:59;;;;;;;;;;;;;;;12.38;48.50;100633.25;4999884;27;98898;-75
2024/03/14 03:21:27;;;;;;;;;;;;;;;12.37;48.72;100630.81;4968123;27;98539;-72
2024/03/14 03:23:53;;;;;;;;;;;;;;;12.38;48.53;100629.72;4982891;27;98402;-72
2024/03/14 03:26:20;;;;;;;;;;;;;;;12.38;48.75;100627.00;4984212;27;98311;-72
2024/03/14 03:28:46;;;;;;;;;;;;;;;12.36;48.56;100627.28;4960347;27;98897;-72
2024/03/14 03:31:12;;;;;;;;;;;;;;;12.37;48.65;100628.09;4978656;27;98739;-72
2024/03/14 03:33:39;;;;;;;;;;;;;;;12.37;48.69;100625.41;4968125;27;98054;-75
2024/03/14 03:36:05;;;;;;;;;;;;;;;12.37;48.71;100628.09;4961801;27;99708;-75
2024/03/14 03:38:36;;;;;;;;;;;;;;;12.38;48.67;100635.13;4966483;27;98093;-72
2024/03/14 03:41:03;;;;;;;;;;;;;;;12.36;48.77;100634.59;4976124;27;99375;-75
2024/03/14 03:43:30;;;;;;;;;;;;;;;12.35;48.66;100630.28;4966368;27;99748;-75
2024/03/14 03:45:57;;;;;;;;;;;;;;;12.37;48.67;100633.50;4983298;27;100261;-72
2024/03/14 03:48:23;;;;;;;;;;;;;;;12.34;48.74;100636.75;4983454;27;98028;-72
2024/03/14 03:50:50;;;;;;;;;;;;;;;12.34;48.85;100634.03;4954358;27;98239;-72
2024/03/14 03:53:16;;;;;;;;;;;;;;;12.34;48.75;100634.88;4967417;27;98659;-75
2024/03/14 03:55:43;;;;;;;;;;;;;;;12.34;48.74;100628.63;4965287;27;103584;-75
2024/03/14 03:58:10;;;;;;;;;;;;;;;12.33;48.80;100630.53;4961159;27;99013;-74
2024/03/14 04:00:46;;;;;;;;;;;;;;;12.32;48.60;100634.34;4993527;27;100053;-72
2024/03/14 04:03:14;;;;;;;;;;;;;;;12.32;48.61;100633.53;4968080;27;98188;-72
2024/03/14 04:05:43;;;;;;;;;;;;;;;12.32;48.73;100628.13;4985255;27;98698;-74
2024/03/14 04:08:10;;;;;;;;;;;;;;;12.29;48.87;100627.56;4969829;27;98351;-74
2024/03/14 04:10:36;;;;;;;;;;;;;;;12.30;48.93;100633.81;4965931;27;98058;-72
2024/03/14 04:13:04;;;;;;;;;;;;;;;12.29;48.80;100624.06;4967835;27;98293;-74
2024/03/14 04:15:31;;;;;;;;;;;;;;;12.28;48.81;100625.97;4969464;27;98014;-72
2024/03/14 04:17:58;;;;;;;;;;;;;;;12.28;48.91;100628.66;4960168;28;97974;-75
2024/03/14 04:20:27;;;;;;;;;;;;;;;12.27;48.75;100632.47;4966306;27;98000;-74
2024/03/14 04:22:54;;;;;;;;;;;;;;;12.27;48.66;100628.94;4980952;27;98240;-72
2024/03/14 04:25:20;;;;;;;;;;;;;;;12.26;48.91;100625.44;4957885;27;98053;-72
2024/03/14 04:27:54;;;;;;;;;;;;;;;12.26;48.71;100636.25;4968638;27;98034;-72
2024/03/14 04:30:21;;;;;;;;;;;;;;;12.25;48.85;100623.81;4985617;27;98576;-72
2024/03/14 04:32:48;;;;;;;;;;;;;;;12.25;48.49;100633.81;4967537;27;98706;-75
2024/03/14 04:35:17;;;;;;;;;;;;;;;12.25;48.73;100634.63;4965781;27;100843;-72
2024/03/14 04:37:49;;;;;;;;;;;;;;;12.24;48.76;100630.31;4949324;27;98515;-74
2024/03/14 04:40:19;;;;;;;;;;;;;;;12.23;48.69;100625.97;4982332;27;98295;-72
2024/03/14 04:42:46;;;;;;;;;;;;;;;12.23;48.75;100625.97;4983264;27;98442;-72
2024/03/14 04:45:22;;;;;;;;;;;;;;;12.23;48.92;100636.78;4951931;27;98171;-75
2024/03/14 04:47:51;;;;;;;;;;;;;;;12.22;48.83;100640.59;4965487;27;99485;-75
2024/03/14 04:50:21;;;;;;;;;;;;;;;12.22;48.90;100647.84;4979324;27;98006;-72
2024/03/14 04:52:47;;;;;;;;;;;;;;;12.21;48.84;100647.06;4962220;27;98425;-75
2024/03/14 04:55:14;;;;;;;;;;;;;;;12.21;49.00;100644.34;4954802;27;98189;-72
2024/03/14 04:57:41;;;;;;;;;;;;;;;12.20;48.67;100639.22;4981754;27;100766;-72
2024/03/14 05:02:51;;;;;;;;;;;;;;;12.20;48.88;100648.16;4970345;27;99357;-75
2024/03/14 05:05:17;;;;;;;;;;;;;;;12.19;48.78;100643.84;4969234;27;99982;-75
2024/03/14 05:07:44;;;;;;;;;;;;;;;12.20;48.93;100644.63;4966874;27;98380;-72
2024/03/14 05:10:13;;;;;;;;;;;;;;;12.19;48.83;100641.13;4936616;27;98465;-75
2024/03/14 05:12:40;;;;;;;;;;;;;;;12.20;49.02;100640.03;4964831;27;98113;-72
2024/03/14 05:15:07;;;;;;;;;;;;;;;12.19;48.89;100640.31;4943640;27;98386;-72
2024/03/14 05:17:34;;;;;;;;;;;;;;;12.19;48.93;100637.63;4975364;27;98073;-75
2024/03/14 05:20:02;;;;;;;;;;;;;;;12.18;48.95;100639.53;4982013;27;98690;-75
2024/03/14 05:22:31;;;;;;;;;;;;;;;12.19;48.89;100643.84;4977736;27;98367;-73
2024/03/14 05:25:06;;;;;;;;;;;;;;;12.19;48.87;100646.53;4990776;27;98228;-74
2024/03/14 05:27:32;;;;;;;;;;;;;;;12.19;48.92;100641.13;4981503;27;98125;-74
2024/03/14 05:29:59;;;;;;;;;;;;;;;12.18;48.96;100639.53;4990474;27;99252;-75
2024/03/14 05:32:28;;;;;;;;;;;;;;;12.20;48.89;100636.53;4958375;27;98270;-73
2024/03/14 05:34:55;;;;;;;;;;;;;;;12.20;48.97;100631.94;4980226;27;99833;-74
2024/03/14 05:37:22;;;;;;;;;;;;;;;12.20;48.78;100634.63;4975530;27;98555;-72
2024/03/14 05:39:48;;;;;;;;;;;;;;;12.20;48.87;100640.03;4982214;27;98352;-72
2024/03/14 05:42:18;;;;;;;;;;;;;;;12.21;48.84;100621.94;4982717;27;98314;-72
2024/03/14 05:44:48;;;;;;;;;;;;;;;12.22;48.92;100634.34;4963184;27;99799;-72
2024/03/14 05:47:15;;;;;;;;;;;;;;;12.23;48.87;100625.19;4975464;27;99763;-72
2024/03/14 05:49:42;;;;;;;;;;;;;;;12.25;48.86;100633.81;4961940;27;99130;-75
2024/03/14 05:52:10;;;;;;;;;;;;;;;12.24;48.86;100629.50;4973717;27;98278;-74
2024/03/14 05:54:36;;;;;;;;;;;;;;;12.25;48.93;100631.91;4967283;27;98068;-75
2024/03/14 05:57:05;;;;;;;;;;;;;;;12.26;48.92;100636.25;4994468;27;98709;-72
2024/03/14 05:59:31;;;;;;;;;;;;;;;12.28;48.88;100625.16;4989875;27;98231;-72
2024/03/14 06:01:58;;;;;;;;;;;;;;;12.27;48.80;100632.47;4971811;27;98676;-75
2024/03/14 06:04:24;;;;;;;;;;;;;;;12.30;48.95;100633.81;4972491;27;97848;-75
2024/03/14 06:06:51;;;;;;;;;;;;;;;12.31;48.83;100638.13;4986611;27;98055;-75
2024/03/14 06:09:17;;;;;;;;;;;;;;;12.34;48.87;100628.63;4970422;27;98251;-75
2024/03/14 06:11:44;;;;;;;;;;;;;;;12.37;48.84;100633.50;4965413;27;98038;-72
2024/03/14 06:14:10;;;;;;;;;;;;;;;12.39;48.80;100628.66;4978829;27;99732;-71
2024/03/14 06:16:37;;;;;;;;;;;;;;;12.43;48.54;100629.72;4966680;27;99118;-72
2024/03/14 06:19:03;;;;;;;;;;;;;;;12.45;48.70;100633.75;4980219;27;98280;-75
2024/03/14 06:21:30;;;;;;;;;;;;;;;12.48;48.65;100629.69;4967139;27;98195;-75
2024/03/14 06:23:56;;;;;;;;;;;;;;;12.49;48.79;100628.59;4962241;27;98175;-75
2024/03/14 06:26:22;;;;;;;;;;;;;;;12.50;48.85;100631.03;4992202;27;100195;-75
2024/03/14 06:28:54;;;;;;;;;;;;;;;12.54;48.36;100639.41;4984827;27;98494;-75
2024/03/14 06:31:20;;;;;;;;;;;;;;;12.58;48.76;100636.97;4976992;27;97948;-72
2024/03/14 06:33:47;;;;;;;;;;;;;;;12.63;48.61;100632.34;4987419;27;99676;-71
2024/03/14 06:36:13;;;;;;;;;;;;;;;12.70;48.78;100637.47;4998524;27;98370;-72
2024/03/14 06:38:41;;;;;;;;;;;;;;;12.80;48.59;100631.19;4968991;27;98940;-75
2024/03/14 06:41:08;;;;;;;;;;;;;;;12.88;48.56;100636.00;4996617;27;98266;-75
2024/03/14 06:43:34;;;;;;;;;;;;;;;12.92;48.39;100635.16;4980503;27;97922;-72
2024/03/14 06:46:03;;;;;;;;;;;;;;;12.97;48.57;100645.19;4984688;27;102206;-75
2024/03/14 06:48:31;;;;;;;;;;;;;;;13.01;48.50;100638.94;4981870;27;98101;-75
2024/03/14 06:50:58;;;;;;;;;;;;;;;13.07;48.40;100645.09;4989832;27;98136;-75
2024/03/14 06:53:25;;;;;;;;;;;;;;;13.15;48.56;100646.41;4964163;27;99570;-72
2024/03/14 06:55:51;;;;;;;;;;;;;;;13.22;48.62;100641.50;4966962;27;98980;-72
2024/03/14 06:58:18;;;;;;;;;;;;;;;13.34;48.24;100638.47;4980034;27;98042;-72
2024/03/14 07:00:47;;;;;;;;;;;;;;;13.45;48.52;100643.53;4967562;27;98383;-72
2024/03/14 07:03:14;;;;;;;;;;;;;;;13.50;48.30;100645.41;4994127;27;98897;-72
2024/03/14 07:05:42;;;;;;;;;;;;;;;13.58;48.46;100649.41;4960191;27;98393;-76
2024/03/14 07:08:11;;;;;;;;;;;;;;;13.64;48.30;100651.00;4979041;27;98297;-72
2024/03/14 07:10:41;;;;;;;;;;;;;;;13.70;48.40;100649.84;4996959;27;99766;-72
2024/03/14 07:13:07;;;;;;;;;;;;;;;13.74;48.14;100649.00;4983439;27;97989;-72
2024/03/14 07:15:36;;;;;;;;;;;;;;;13.78;48.15;100651.94;4975710;27;98440;-75
2024/03/14 07:18:05;;;;;;;;;;;;;;;13.81;48.37;100656.00;4959626;27;98257;-72
2024/03/14 07:20:35;;;;;;;;;;;;;;;13.81;48.53;100661.41;4961305;27;98213;-72
2024/03/14 07:23:02;;;;;;;;;;;;;;;13.81;48.51;100662.22;4981342;27;99698;-72
2024/03/14 07:25:28;;;;;;;;;;;;;;;13.83;48.36;100660.03;4969179;27;98297;-75
2024/03/14 07:27:55;;;;;;;;;;;;;;;13.88;48.26;100659.19;4982059;27;98144;-72
2024/03/14 07:30:24;;;;;;;;;;;;;;;13.93;48.43;100665.38;5000967;27;100096;-72
2024/03/14 07:32:51;;;;;;;;;;;;;;;14.01;48.40;100661.22;4977603;27;98245;-72
2024/03/14 07:35:18;;;;;;;;;;;;;;;14.03;48.56;100664.47;4982415;27;99018;-75
2024/03/14 07:37:45;;;;;;;;;;;;;;;14.08;48.23;100661.72;4984154;27;99967;-76
2024/03/14 07:40:12;;;;;;;;;;;;;;;14.18;48.23;100666.22;4965582;27;98046;-76
2024/03/14 07:42:39;;;;;;;;;;;;;;;14.33;48.30;100666.06;4984156;27;98320;-75
2024/03/14 07:45:13;;;;;;;;;;;;;;;14.51;48.11;100671.88;4970147;27;98079;-72
2024/03/14 07:47:39;;;;;;;;;;;;;;;14.66;48.01;100672.50;4970940;27;98461;-75
2024/03/14 07:50:08;;;;;;;;;;;;;;;14.76;47.94;100674.28;4979471;27;98185;-72
2024/03/14 07:52:34;;;;;;;;;;;;;;;14.91;47.78;100670.59;4980690;27;98333;-72
2024/03/14 07:55:06;;;;;;;;;;;;;;;15.02;47.89;100673.97;4977551;27;98395;-72
2024/03/14 07:57:36;;;;;;;;;;;;;;;15.08;47.91;100679.03;4984644;27;98308;-72
2024/03/14 08:00:09;;;;;;;;;;;;;;;15.06;47.79;100683.16;4988022;27;99364;-73
2024/03/14 08:02:38;;;;;;;;;;;;;;;15.05;48.06;100676.91;4986439;27;99176;-75
2024/03/14 08:05:07;;;;;;;;;;;;;;;15.09;48.13;100679.84;4987062;27;98325;-75
2024/03/14 08:07:33;;;;;;;;;;;;;;;15.11;47.96;100683.88;5005529;27;99630;-75
2024/03/14 08:10:00;;;;;;;;;;;;;;;15.13;48.21;100689.84;4999527;27;98108;-76
2024/03/14 08:12:31;;;;;;;;;;;;;;;15.15;48.00;100684.91;4970627;27;98207;-72
2024/03/14 08:15:17;;;;;;;;;;;;;;;15.18;48.29;100694.38;4991360;27;99586;-72
2024/03/14 08:17:46;;;;;;;;;;;;;;;15.14;48.26;100693.34;4963844;27;98449;-72
2024/03/14 08:20:24;;;;;;;;;;;;;;;15.10;48.37;100692.31;4969149;27;98126;-76
2024/03/14 08:22:52;;;;;;;;;;;;;;;15.10;48.22;100697.75;4960366;28;98240;-72
2024/03/14 08:25:19;;;;;;;;;;;;;;;15.09;48.44;100690.69;4954152;27;98175;-72
2024/03/14 08:27:47;;;;;;;;;;;;;;;15.15;48.36;100700.41;4946475;27;98360;-72
2024/03/14 08:30:13;;;;;;;;;;;;;;;15.23;48.10;100697.03;4943423;27;99065;-72
2024/03/14 08:32:40;;;;;;;;;;;;;;;15.28;48.10;100696.13;4955972;27;97959;-73
2024/03/14 08:35:07;;;;;;;;;;;;;;;15.29;48.48;100700.47;4963647;27;99179;-76
2024/03/14 08:37:33;;;;;;;;;;;;;;;15.36;47.94;100698.19;4978332;27;98106;-72
2024/03/14 08:40:00;;;;;;;;;;;;;;;15.56;47.86;100702.53;4969729;27;98448;-72
2024/03/14 08:42:32;;;;;;;;;;;;;;;15.75;47.92;100699.81;4970474;27;98128;-72
2024/03/14 08:45:01;;;;;;;;;;;;;;;15.84;47.63;100703.50;4950339;27;98054;-72
2024/03/14 08:47:27;;;;;;;;;;;;;;;15.91;47.75;100701.19;4942923;27;98676;-76
2024/03/14 08:49:53;;;;;;;;;;;;;;;15.99;47.71;100702.41;4948393;27;98776;-76
2024/03/14 08:52:26;;;;;;;;;;;;;;;16.04;47.94;100705.06;4978799;27;98252;-73
2024/03/14 08:54:53;;;;;;;;;;;;;;;16.09;47.85;100699.53;4943567;27;98123;-76
2024/03/14 08:57:22;;;;;;;;;;;;;;;16.08;48.00;100709.63;4960536;27;98393;-76
2024/03/14 08:59:49;;;;;;;;;;;;;;;16.06;48.00;100700.94;4987874;27;98522;-72
2024/03/14 09:02:14;;;;;;;;;;;;;;;16.16;47.93;100708.13;4959790;27;98645;-75
2024/03/14 09:04:46;;;;;;;;;;;;;;;16.26;47.96;100702.50;4970611;27;97946;-72
2024/03/14 09:07:15;;;;;;;;;;;;;;;16.29;47.90;100709.25;4971659;28;99396;-76
2024/03/14 09:09:44;;;;;;;;;;;;;;;16.29;47.96;100707.34;4965184;27;99040;-72
2024/03/14 09:12:25;;;;;;;;;;;;;;;16.31;48.03;100709.75;4949911;28;98069;-76
2024/03/14 09:14:54;;;;;;;;;;;;;;;16.36;48.04;100706.94;4953179;28;99219;-76
2024/03/14 09:17:21;;;;;;;;;;;;;;;16.37;47.99;100711.28;4973167;27;98438;-72
2024/03/14 09:19:47;;;;;;;;;;;;;;;16.38;47.96;100699.28;4964892;27;98386;-76
2024/03/14 09:22:13;;;;;;;;;;;;;;;16.38;48.11;100712.88;4977490;27;98838;-72
2024/03/14 09:24:39;;;;;;;;;;;;;;;16.45;48.14;100710.59;4988538;27;98379;-72
2024/03/14 09:27:06;;;;;;;;;;;;;;;16.55;47.94;100704.97;4981300;27;97907;-76
2024/03/14 09:29:32;;;;;;;;;;;;;;;16.68;47.90;100706.06;4980991;27;98677;-77
2024/03/14 09:31:59;;;;;;;;;;;;;;;16.81;47.63;100712.66;4973588;27;98326;-76
2024/03/14 09:34:25;;;;;;;;;;;;;;;16.93;47.77;100712.94;4967422;27;97794;-76
2024/03/14 09:36:55;;;;;;;;;;;;;;;16.95;47.68;100709.94;4972861;27;98049;-78
2024/03/14 09:39:21;;;;;;;;;;;;;;;17.06;47.88;100709.41;5003904;27;100005;-72
2024/03/14 09:41:49;;;;;;;;;;;;;;;17.10;47.76;100713.13;4979772;27;97995;-73
2024/03/14 09:44:16;;;;;;;;;;;;;;;17.10;47.82;100702.25;4969101;27;97929;-76
2024/03/14 09:46:44;;;;;;;;;;;;;;;17.14;47.82;100707.88;4977643;27;97876;-72
2024/03/14 09:49:12;;;;;;;;;;;;;;;17.17;47.80;100699.91;4968689;27;98182;-76
2024/03/14 09:51:39;;;;;;;;;;;;;;;17.16;47.95;100697.47;4965015;27;99760;-72
2024/03/14 09:54:06;;;;;;;;;;;;;;;17.14;47.91;100700.53;4982620;27;98035;-72
2024/03/14 09:56:32;;;;;;;;;;;;;;;17.13;48.03;100701.63;4983059;27;98072;-76
2024/03/14 09:59:00;;;;;;;;;;;;;;;17.12;48.16;100694.56;4984288;27;98106;-76
2024/03/14 10:01:26;;;;;;;;;;;;;;;17.14;48.10;100697.00;4964255;27;98252;-73
2024/03/14 10:03:52;;;;;;;;;;;;;;;17.21;48.01;100697.34;4981817;27;98357;-73
2024/03/14 10:06:20;;;;;;;;;;;;;;;17.50;47.62;100698.91;4980238;27;101253;-76
2024/03/14 10:08:47;;;;;;;;;;;;;;;17.97;47.01;100686.63;4980275;27;99200;-73
2024/03/14 10:11:14;;;;;;;;;;;;;;;18.46;46.81;100684.78;4981917;27;98215;-73
2024/03/14 10:13:43;;;;;;;;;;;;;;;18.91;46.59;100684.66;5004693;27;98650;-73
2024/03/14 10:16:09;;;;;;;;;;;;;;;19.01;46.76;100689.78;4979587;27;100107;-73
2024/03/14 10:18:35;;;;;;;;;;;;;;;19.00;47.13;100695.59;4981019;27;98195;-76
2024/03/14 10:21:07;;;;;;;;;;;;;;;18.91;47.11;100689.31;4959357;27;98940;-73
2024/03/14 10:23:37;;;;;;;;;;;;;;;18.84;47.43;100689.78;4980376;27;98067;-76
2024/03/14 10:26:03;;;;;;;;;;;;;;;18.85;47.35;100686.72;4961065;27;98147;-76
2024/03/14 10:28:31;;;;;;;;;;;;;;;18.91;47.41;100686.59;4971153;27;98020;-75
2024/03/14 10:31:01;;;;;;;;;;;;;;;18.88;47.64;100686.06;4985089;27;98162;-76
2024/03/14 10:33:29;;;;;;;;;;;;;;;18.83;47.65;100693.63;4983524;27;98183;-72
2024/03/14 10:35:59;;;;;;;;;;;;;;;18.83;47.54;100688.97;4985812;27;98163;-72
2024/03/14 10:38:36;;;;;;;;;;;;;;;18.86;47.74;100684.78;4985969;27;98666;-76
2024/03/14 10:41:05;;;;;;;;;;;;;;;18.85;47.71;100692.16;4986386;27;98241;-76
2024/03/14 10:43:39;;;;;;;;;;;;;;;18.76;47.88;100685.88;4998301;27;99727;-73
2024/03/14 10:46:13;;;;;;;;;;;;;;;18.73;47.76;100683.78;4981974;27;98143;-76
2024/03/14 10:48:44;;;;;;;;;;;;;;;18.79;47.61;100681.72;4982172;27;98134;-73
2024/03/14 10:51:13;;;;;;;;;;;;;;;18.91;47.63;100673.72;4977833;27;98311;-76
2024/03/14 10:53:40;;;;;;;;;;;;;;;19.08;47.40;100683.88;4967585;27;99757;-73
2024/03/14 10:56:12;;;;;;;;;;;;;;;19.24;47.42;100678.75;4965013;27;99292;-76
2024/03/14 10:58:40;;;;;;;;;;;;;;;19.45;47.32;100679.72;4984666;27;98690;-76
2024/03/14 11:01:07;;;;;;;;;;;;;;;19.48;47.26;100676.34;4962732;27;99505;-76
2024/03/14 11:03:34;;;;;;;;;;;;;;;19.53;47.26;100675.38;4980252;27;98078;-73
2024/03/14 11:06:01;;;;;;;;;;;;;;;19.75;47.11;100674.44;4969259;27;98080;-76
2024/03/14 11:08:27;;;;;;;;;;;;;;;19.85;47.12;100674.09;5004076;27;99456;-73
2024/03/14 11:10:54;;;;;;;;;;;;;;;19.83;47.32;100666.19;4966413;27;98268;-76
2024/03/14 11:13:26;;;;;;;;;;;;;;;19.90;47.41;100667.66;4962171;27;98163;-73
2024/03/14 11:15:54;;;;;;;;;;;;;;;19.93;47.32;100662.34;4980774;27;97872;-75
2024/03/14 11:18:22;;;;;;;;;;;;;;;19.84;47.55;100661.53;4963108;27;97867;-73
2024/03/14 11:20:53;;;;;;;;;;;;;;;19.90;47.48;100656.72;4969705;27;98262;-76
2024/03/14 11:23:22;;;;;;;;;;;;;;;19.93;47.57;100648.66;5003640;27;98681;-76
2024/03/14 11:25:53;;;;;;;;;;;;;;;19.85;47.60;100655.75;4989894;27;98388;-73
2024/03/14 11:28:20;;;;;;;;;;;;;;;19.77;47.80;100651.09;4965179;27;98219;-72
2024/03/14 11:30:55;;;;;;;;;;;;;;;19.70;47.96;100658.19;4968660;27;98009;-73
2024/03/14 11:33:22;;;;;;;;;;;;;;;19.59;47.95;100655.75;5004858;27;98225;-72
2024/03/14 11:35:49;;;;;;;;;;;;;;;19.53;48.01;100654.31;4987876;27;98298;-75
2024/03/14 11:38:15;;;;;;;;;;;;;;;19.51;48.15;100653.03;4991184;27;98996;-76
2024/03/14 11:41:02;;;;;;;;;;;;;;;19.49;48.05;100656.09;5005577;27;99208;-72
2024/03/14 11:43:29;;;;;;;;;;;;;;;19.51;48.08;100647.56;4999003;27;100494;-76
2024/03/14 11:45:59;;;;;;;;;;;;;;;19.60;47.99;100638.22;4980715;27;98061;-76
2024/03/14 11:48:25;;;;;;;;;;;;;;;19.64;48.08;100635.66;4973331;27;99643;-76
2024/03/14 11:50:55;;;;;;;;;;;;;;;19.67;47.85;100637.75;4968895;27;98311;-72
2024/03/14 11:53:22;;;;;;;;;;;;;;;19.72;48.00;100636.78;4975477;27;98227;-73
2024/03/14 11:55:49;;;;;;;;;;;;;;;19.80;47.84;100636.75;4977961;27;98268;-71
2024/03/14 11:58:16;;;;;;;;;;;;;;;19.78;48.01;100630.03;4988304;27;98079;-76
2024/03/14 12:00:42;;;;;;;;;;;;;;;19.69;48.15;100632.78;4986733;27;98021;-75
2024/03/14 12:03:12;;;;;;;;;;;;;;;19.60;48.24;100632.75;4970140;27;98180;-76
2024/03/14 12:05:42;;;;;;;;;;;;;;;19.48;48.24;100624.41;4988240;27;99587;-76
2024/03/14 12:08:12;;;;;;;;;;;;;;;19.41;48.34;100628.75;4965424;27;98189;-73
2024/03/14 12:10:39;;;;;;;;;;;;;;;19.40;48.26;100618.94;4981086;27;98433;-72
2024/03/14 12:13:12;;;;;;;;;;;;;;;19.45;48.30;100619.56;4981445;27;98427;-72
2024/03/14 12:15:39;;;;;;;;;;;;;;;19.44;48.20;100609.78;4965231;27;97845;-76
2024/03/14 12:18:07;;;;;;;;;;;;;;;19.31;48.59;100613.50;4965604;27;99541;-76
2024/03/14 12:20:34;;;;;;;;;;;;;;;19.14;48.66;100614.31;4967714;27;98420;-76
2024/03/14 12:23:00;;;;;;;;;;;;;;;19.01;48.68;100613.31;4972477;27;98181;-76
2024/03/14 12:25:27;;;;;;;;;;;;;;;18.93;48.82;100607.84;4973624;27;98530;-76
2024/03/14 12:27:55;;;;;;;;;;;;;;;18.81;48.91;100601.09;4998734;27;98139;-76
2024/03/14 12:30:21;;;;;;;;;;;;;;;18.73;48.80;100595.63;4981583;27;98630;-73
2024/03/14 12:32:54;;;;;;;;;;;;;;;18.63;48.89;100608.44;4985073;27;98144;-76
2024/03/14 12:35:22;;;;;;;;;;;;;;;18.50;48.91;100603.09;4982793;27;98060;-76
2024/03/14 12:37:52;;;;;;;;;;;;;;;18.39;49.17;100606.13;4985047;27;98346;-76
2024/03/14 12:40:19;;;;;;;;;;;;;;;18.34;49.04;100595.31;4969547;27;98106;-76
2024/03/14 12:42:53;;;;;;;;;;;;;;;18.30;49.03;100590.81;4977958;27;98207;-72